.
WxDataArchive / Data Records for 2007-01-26
2007-01-25 January 2007 2007-01-27

Data Records for Friday, 26 January 2007

Time	Temp	Chill	HIndex	Humid	Dewpt	 Wind 	HiWind	WindDir	Rain 	Barom 
-----	----	-----	------	-----	-----	------	------	-------	-----	----- 
00:00	18.0	18.0	18.0	74	11.1	1	4	248	0.00	30.195 
00:05	18.1	18.1	18.1	74	11.2	1	3	248	0.00	30.195 
00:10	18.1	18.1	18.1	74	11.2	1	4	248	0.00	30.195 
00:15	18.0	18.0	18.0	74	11.1	1	4	248	0.00	30.192 
00:20	17.8	17.8	17.8	74	10.9	1	4	248	0.00	30.192 
00:25	17.5	17.5	17.5	74	10.7	1	3	248	0.00	30.192 
00:30	17.3	17.3	17.3	75	10.8	1	3	248	0.00	30.193 
00:35	17.2	17.2	17.2	75	10.7	0	3	248	0.00	30.193 
00:40	17.0	17.0	17.0	76	10.8	0	1	248	0.00	30.193 
00:45	17.0	17.0	17.0	77	11.1	1	3	248	0.00	30.192 
00:50	17.0	17.0	17.0	78	11.3	1	3	248	0.00	30.192 
00:55	17.0	17.0	17.0	78	11.3	1	3	248	0.00	30.192 
01:00	17.0	17.0	17.0	79	11.6	1	4	248	0.00	30.177 
01:05	17.2	17.2	17.2	79	11.8	1	3	248	0.00	30.177 
01:10	17.2	17.2	17.2	79	11.8	0	2	248	0.00	30.177 
01:15	17.2	17.2	17.2	79	11.8	0	2	248	0.00	30.171 
01:20	17.2	17.2	17.2	79	11.8	0	3	248	0.00	30.171 
01:25	17.2	17.2	17.2	78	11.5	1	4	248	0.00	30.171 
01:30	17.3	17.3	17.3	78	11.6	1	3	248	0.00	30.163 
01:35	17.3	17.3	17.3	77	11.3	1	3	248	0.00	30.163 
01:40	17.5	17.5	17.5	77	11.5	0	3	248	0.00	30.163 
01:45	17.5	17.5	17.5	76	11.3	1	4	248	0.00	30.155 
01:50	17.5	17.5	17.5	76	11.3	0	3	248	0.00	30.155 
01:55	17.7	17.7	17.7	74	10.8	1	6	248	0.00	30.155 
02:00	17.8	17.8	17.8	75	11.2	0	1	248	0.00	30.151 
02:05	17.8	17.8	17.8	74	10.9	0	3	248	0.00	30.151 
02:10	17.8	17.8	17.8	73	10.6	1	2	248	0.00	30.151 
02:15	18.0	18.0	18.0	73	10.8	1	3	248	0.00	30.141 
02:20	18.1	18.1	18.1	72	10.6	1	4	248	0.00	30.141 
02:25	18.1	18.1	18.1	72	10.6	0	1	248	0.00	30.141 
02:30	18.3	18.3	18.3	72	10.8	0	3	248	0.00	30.144 
02:35	18.3	18.3	18.3	72	10.8	1	2	248	0.00	30.144 
02:40	18.4	18.4	18.4	72	10.9	1	2	248	0.00	30.144 
02:45	18.6	18.6	18.6	71	10.8	1	4	248	0.00	30.140 
02:50	18.6	18.6	18.6	72	11.1	0	3	248	0.00	30.140 
02:55	18.6	18.6	18.6	71	10.8	1	4	248	0.00	30.140 
03:00	18.8	18.8	18.8	71	11.0	1	4	248	0.00	30.128 
03:05	18.8	18.8	18.8	71	11.0	0	2	248	0.00	30.128 
03:10	18.8	18.8	18.8	71	11.0	1	4	248	0.00	30.128 
03:15	18.8	18.8	18.8	71	11.0	0	2	270	0.00	30.116 
03:20	18.8	18.8	18.8	71	11.0	1	3	248	0.00	30.116 
03:25	18.6	18.6	18.6	71	10.8	1	5	248	0.00	30.116 
03:30	18.6	18.6	18.6	71	10.8	1	4	248	0.00	30.115 
03:35	18.6	18.6	18.6	70	10.5	1	4	248	0.00	30.115 
03:40	18.4	18.4	18.4	70	10.3	2	4	248	0.00	30.115 
03:45	18.3	18.3	18.3	71	10.5	1	6	248	0.00	30.107 
03:50	18.1	18.1	18.1	71	10.3	1	4	248	0.00	30.107 
03:55	18.1	18.1	18.1	72	10.6	1	4	248	0.00	30.107 
04:00	18.1	18.1	18.1	72	10.6	1	3	248	0.00	30.106 
04:05	18.3	18.3	18.3	72	10.8	1	5	248	0.00	30.106 
04:10	18.3	18.3	18.3	72	10.8	1	5	248	0.00	30.106 
04:15	18.4	18.4	18.4	73	11.2	1	3	248	0.00	30.101 
04:20	18.4	18.4	18.4	72	10.9	2	4	270	0.00	30.101 
04:25	18.4	18.4	18.4	73	11.2	1	6	270	0.00	30.101 
04:30	18.4	18.4	18.4	72	10.9	2	5	248	0.00	30.111 
04:35	18.4	18.4	18.4	72	10.9	2	6	248	0.00	30.111 
04:40	18.4	18.4	18.4	72	10.9	1	3	248	0.00	30.111 
04:45	18.4	18.4	18.4	72	10.9	2	5	248	0.00	30.101 
04:50	18.4	18.4	18.4	73	11.2	2	5	248	0.00	30.101 
04:55	18.4	18.4	18.4	73	11.2	2	7	248	0.00	30.101 
05:00	18.4	18.4	18.4	73	11.2	1	4	248	0.00	30.101 
05:05	18.4	18.4	18.4	73	11.2	1	3	248	0.00	30.101 
05:10	18.4	18.4	18.4	73	11.2	2	4	248	0.00	30.101 
05:15	18.6	18.6	18.6	74	11.7	1	5	248	0.00	30.086 
05:20	18.4	18.4	18.4	73	11.2	2	6	248	0.00	30.086 
05:25	18.4	18.4	18.4	73	11.2	2	5	248	0.00	30.086 
05:30	18.6	18.6	18.6	73	11.4	1	4	248	0.00	30.091 
05:35	18.6	18.6	18.6	73	11.4	1	4	248	0.00	30.091 
05:40	18.8	18.8	18.8	74	11.9	1	3	248	0.00	30.091 
05:45	18.8	18.8	18.8	74	11.9	1	5	248	0.00	30.082 
05:50	18.8	18.8	18.8	74	11.9	1	4	248	0.00	30.082 
05:55	18.8	18.8	18.8	74	11.9	2	6	248	0.00	30.082 
06:00	18.8	18.8	18.8	74	11.9	2	7	248	0.00	30.082 
06:05	18.9	18.9	18.9	74	12.0	2	5	248	0.00	30.082 
06:10	18.9	18.9	18.9	74	12.0	1	4	248	0.00	30.082 
06:15	18.9	18.9	18.9	75	12.3	1	2	248	0.00	30.081 
06:20	19.1	19.1	19.1	75	12.5	2	5	270	0.00	30.081 
06:25	19.1	19.1	19.1	75	12.5	1	5	270	0.00	30.081 
06:30	19.1	19.1	19.1	76	12.8	1	5	248	0.00	30.080 
06:35	19.2	19.2	19.2	76	12.9	2	4	248	0.00	30.080 
06:40	19.2	19.2	19.2	76	12.9	1	6	248	0.00	30.080 
06:45	19.2	19.2	19.2	76	12.9	1	4	248	0.00	30.062 
06:50	19.4	19.4	19.4	76	13.1	1	4	248	0.00	30.062 
06:55	19.4	19.4	19.4	76	13.1	2	5	248	0.00	30.062 
07:00	19.4	19.4	19.4	76	13.1	2	5	248	0.00	30.052 
07:05	19.5	19.5	19.5	76	13.2	2	6	248	0.00	30.052 
07:10	19.5	19.5	19.5	76	13.2	2	5	248	0.00	30.052 
07:15	19.7	19.7	19.7	77	13.7	2	5	248	0.00	30.054 
07:20	19.7	19.7	19.7	77	13.7	1	5	248	0.00	30.054 
07:25	19.9	19.9	19.9	77	13.9	1	5	248	0.00	30.054 
07:30	19.9	19.9	19.9	77	13.9	2	6	248	0.00	30.053 
07:35	20.0	20.0	20.0	77	14.0	1	5	248	0.00	30.053 
07:40	20.2	20.2	20.2	77	14.2	2	5	248	0.00	30.053 
07:45	20.2	20.2	20.2	77	14.2	2	5	248	0.00	30.059 
07:50	20.3	20.3	20.3	77	14.3	2	6	248	0.00	30.059 
07:55	20.5	20.5	20.5	77	14.5	2	5	248	0.00	30.059 
08:00	20.6	20.6	20.6	77	14.6	1	4	248	0.00	30.054 
08:05	20.8	20.8	20.8	77	14.7	2	6	248	0.00	30.054 
08:10	21.0	21.0	21.0	76	14.6	1	5	248	0.00	30.054 
08:15	21.1	21.1	21.1	76	14.7	2	5	248	0.00	30.044 
08:20	21.3	21.3	21.3	76	14.9	2	10	248	0.00	30.044 
08:25	21.4	21.4	21.4	76	15.0	2	10	248	0.00	30.044 
08:30	21.6	21.6	21.6	75	14.9	3	7	248	0.00	30.040 
08:35	21.6	21.6	21.6	75	14.9	3	9	270	0.00	30.040 
08:40	21.6	16.1	21.6	75	14.9	4	10	248	0.00	30.040 
08:45	21.8	21.8	21.8	75	15.1	3	9	248	0.00	30.024 
08:50	21.8	21.8	21.8	75	15.1	3	14	270	0.00	30.024 
08:55	21.9	16.4	21.9	75	15.2	4	13	270	0.00	30.024 
09:00	21.9	21.9	21.9	74	14.9	3	9	248	0.00	30.029 
09:05	22.1	16.6	22.1	74	15.1	4	9	270	0.00	30.029 
09:10	22.1	16.6	22.1	73	14.8	4	12	270	0.00	30.029 
09:15	22.2	22.2	22.2	73	14.9	3	9	248	0.00	30.021 
09:20	22.4	22.4	22.4	73	15.1	3	7	248	0.00	30.021 
09:25	22.5	22.5	22.5	73	15.2	3	7	248	0.00	30.021 
09:30	22.5	17.1	22.5	72	14.9	4	11	248	0.00	30.006 
09:35	22.9	22.9	22.9	72	15.2	3	7	248	0.00	30.006 
09:40	23.2	23.2	23.2	71	15.2	3	8	270	0.00	30.006 
09:45	23.2	17.9	23.2	71	15.2	4	11	248	0.00	30.002 
09:50	23.0	17.7	23.0	71	15.0	4	10	248	0.00	30.002 
09:55	23.2	23.2	23.2	71	15.2	3	12	248	0.00	30.002 
10:00	23.2	16.7	23.2	70	14.9	5	14	270	0.00	29.999 
10:05	23.2	17.9	23.2	71	15.2	4	10	248	0.00	29.999 
10:10	23.2	17.9	23.2	71	15.2	4	10	248	0.00	29.999 
10:15	23.3	23.3	23.3	72	15.6	3	8	248	0.00	29.986 
10:20	23.5	23.5	23.5	73	16.1	3	10	248	0.00	29.986 
10:25	23.5	23.5	23.5	73	16.1	3	7	248	0.00	29.986 
10:30	23.5	18.3	23.5	74	16.5	4	10	248	0.00	29.982 
10:35	23.8	23.8	23.8	74	16.7	3	7	248	0.00	29.982 
10:40	23.9	23.9	23.9	75	17.2	3	7	248	0.00	29.982 
10:45	24.2	17.9	24.2	74	17.1	5	11	248	0.00	29.970 
10:50	24.7	24.7	24.7	74	17.6	2	6	248	0.00	29.970 
10:55	25.1	25.1	25.1	73	17.7	3	5	248	0.00	29.970 
11:00	25.6	20.7	25.6	72	17.8	4	6	248	0.00	29.952 
11:05	25.7	20.8	25.7	71	17.6	4	11	248	0.00	29.952 
11:10	26.0	21.1	26.0	71	17.9	4	13	270	0.00	29.952 
11:15	26.1	20.1	26.1	71	18.0	5	11	270	0.00	29.937 
11:20	26.4	21.6	26.4	70	18.0	4	10	248	0.00	29.937 
11:25	26.4	20.5	26.4	71	18.3	5	10	248	0.00	29.937 
11:30	26.6	20.7	26.6	71	18.5	5	10	270	0.00	29.923 
11:35	26.6	19.8	26.6	70	18.2	6	15	270	0.00	29.923 
11:40	26.9	22.2	26.9	71	18.8	4	10	248	0.00	29.923 
11:45	27.3	22.6	27.3	70	18.8	4	12	270	0.00	29.912 
11:50	27.3	19.8	27.3	70	18.8	7	13	270	0.00	29.912 
11:55	27.6	21.9	27.6	70	19.1	5	12	270	0.00	29.912 
12:00	27.9	22.3	27.9	70	19.4	5	11	270	0.00	29.899 
12:05	28.2	22.6	28.2	69	19.4	5	12	248	0.00	29.899 
12:10	28.5	23.0	28.5	69	19.6	5	10	270	0.00	29.899 
12:15	29.0	24.6	29.0	68	19.8	4	10	248	0.00	29.885 
12:20	29.1	22.8	29.1	68	19.9	6	14	270	0.00	29.885 
12:25	29.4	24.0	29.4	67	19.8	5	12	248	0.00	29.885 
12:30	29.7	23.5	29.7	67	20.1	6	18	248	0.00	29.869 
12:35	30.1	24.8	30.1	66	20.1	5	12	248	0.00	29.869 
12:40	30.6	26.5	30.6	65	20.3	4	10	248	0.00	29.869 
12:45	31.0	25.9	31.0	64	20.3	5	13	270	0.00	29.852 
12:50	31.0	24.3	31.0	64	20.3	7	13	270	0.00	29.852 
12:55	31.5	26.5	31.5	64	20.7	5	15	248	0.00	29.852 
13:00	31.8	26.8	31.8	63	20.7	5	12	248	0.00	29.839 
13:05	31.9	26.1	31.9	63	20.8	6	16	270	0.00	29.839 
13:10	32.1	25.6	32.1	63	20.9	7	16	248	0.00	29.839 
13:15	32.4	26.0	32.4	62	20.9	7	16	270	0.00	29.828 
13:20	32.7	28.9	32.7	63	21.5	4	11	248	0.00	29.828 
13:25	33.2	29.5	33.2	62	21.6	4	10	248	0.00	29.828 
13:30	33.4	27.9	33.4	61	21.4	6	14	248	0.00	29.808 
13:35	33.8	33.8	33.8	62	22.2	3	9	248	0.00	29.808 
13:40	34.0	28.6	34.0	62	22.4	6	14	248	0.00	29.808 
13:45	34.1	28.7	34.1	61	22.1	6	14	248	0.00	29.798 
13:50	34.1	28.0	34.1	61	22.1	7	17	248	0.00	29.798 
13:55	34.3	28.3	34.3	62	22.7	7	16	248	0.00	29.798 
14:00	34.6	30.1	34.6	62	22.9	5	10	270	0.00	29.782 
14:05	34.7	29.4	34.7	62	23.0	6	17	270	0.00	29.782 
14:10	34.9	29.0	34.9	62	23.2	7	14	248	0.00	29.782 
14:15	35.0	29.1	35.0	62	23.3	7	14	248	0.00	29.771 
14:20	35.2	29.4	35.2	62	23.5	7	14	248	0.00	29.771 
14:25	35.5	30.4	35.5	62	23.8	6	13	270	0.00	29.771 
14:30	35.8	30.1	35.8	62	24.1	7	13	248	0.00	29.755 
14:35	35.8	29.5	35.8	62	24.1	8	16	248	0.00	29.755 
14:40	35.9	30.2	35.9	62	24.2	7	16	270	0.00	29.755 
14:45	35.9	29.6	35.9	62	24.2	8	15	270	0.00	29.752 
14:50	36.3	32.1	36.3	62	24.5	5	10	248	0.00	29.752 
14:55	36.5	32.4	36.5	62	24.7	5	14	248	0.00	29.752 
15:00	36.6	33.4	36.6	62	24.8	4	12	248	0.00	29.738 
15:05	36.6	31.7	36.6	63	25.2	6	12	248	0.00	29.738 
15:10	36.8	31.3	36.8	63	25.4	7	14	248	0.00	29.738 
15:15	36.9	32.1	36.9	62	25.1	6	12	270	0.00	29.737 
15:20	37.3	33.3	37.3	63	25.9	5	10	248	0.00	29.737 
15:25	37.3	31.9	37.3	62	25.5	7	16	270	0.00	29.737 
15:30	37.3	31.9	37.3	62	25.5	7	13	248	0.00	29.736 
15:35	37.6	31.7	37.6	62	25.8	8	21	270	0.00	29.736 
15:40	37.8	32.5	37.8	62	26.0	7	15	248	0.00	29.736 
15:45	37.8	31.9	37.8	62	26.0	8	17	270	0.00	29.725 
15:50	37.6	32.2	37.6	63	26.2	7	16	270	0.00	29.725 
15:55	37.8	33.9	37.8	63	26.4	5	10	270	0.00	29.725 
16:00	38.0	33.4	38.0	62	26.2	6	14	248	0.00	29.728 
16:05	38.0	33.4	38.0	63	26.5	6	14	248	0.00	29.728 
16:10	38.2	34.4	38.2	63	26.7	5	15	248	0.00	29.728 
16:15	38.3	38.3	38.3	63	26.8	3	9	248	0.00	29.721 
16:20	38.5	35.6	38.5	63	27.0	4	10	248	0.00	29.721 
16:25	38.5	34.0	38.5	64	27.4	6	11	248	0.00	29.721 
16:30	38.6	35.7	38.6	64	27.5	4	13	248	0.00	29.707 
16:35	38.6	34.8	38.6	64	27.5	5	14	248	0.01	29.707 
16:40	38.8	35.1	38.8	64	27.7	5	12	248	0.00	29.707 
16:45	38.9	35.2	38.9	62	27.0	5	15	248	0.00	29.704 
16:50	39.2	35.5	39.2	65	28.4	5	12	248	0.00	29.704 
16:55	39.3	36.5	39.3	65	28.5	4	11	248	0.00	29.704 
17:00	39.6	36.0	39.6	65	28.8	5	15	270	0.00	29.700 
17:05	39.8	34.9	39.8	64	28.6	7	16	270	0.00	29.700 
17:10	39.9	35.0	39.9	64	28.7	7	15	248	0.00	29.700 
17:15	39.9	35.0	39.9	64	28.7	7	15	270	0.00	29.690 
17:20	39.9	35.0	39.9	64	28.7	7	17	270	0.00	29.690 
17:25	39.8	34.9	39.8	65	29.0	7	16	270	0.00	29.690 
17:30	39.8	34.9	39.8	65	29.0	7	17	248	0.00	29.687 
17:35	39.6	35.3	39.6	65	28.8	6	15	270	0.00	29.687 
17:40	39.6	34.7	39.6	65	28.8	7	17	270	0.00	29.687 
17:45	39.5	35.2	39.5	65	28.7	6	14	248	0.00	29.684 
17:50	39.3	35.7	39.3	66	28.9	5	12	270	0.00	29.684 
17:55	39.2	35.5	39.2	66	28.8	5	14	248	0.00	29.684 
18:00	39.2	34.2	39.2	67	29.2	7	15	270	0.00	29.681 
18:05	39.3	34.3	39.3	67	29.3	7	18	248	0.00	29.681 
18:10	39.3	34.9	39.3	67	29.3	6	13	248	0.00	29.681 
18:15	39.3	34.9	39.3	67	29.3	6	14	270	0.00	29.675 
18:20	39.3	34.3	39.3	67	29.3	7	18	248	0.00	29.675 
18:25	39.3	34.9	39.3	67	29.3	6	15	270	0.00	29.675 
18:30	39.3	34.9	39.3	68	29.6	6	11	270	0.00	29.674 
18:35	39.2	35.5	39.2	68	29.5	5	15	248	0.00	29.674 
18:40	39.3	34.9	39.3	68	29.6	6	12	248	0.00	29.674 
18:45	39.3	34.9	39.3	68	29.6	6	12	270	0.00	29.673 
18:50	39.5	34.5	39.5	68	29.8	7	18	248	0.00	29.673 
18:55	39.6	34.7	39.6	68	29.9	7	13	248	0.00	29.673 
19:00	39.5	35.2	39.5	68	29.8	6	17	270	0.00	29.669 
19:05	39.5	34.5	39.5	68	29.8	7	14	248	0.00	29.669 
19:10	39.5	35.2	39.5	69	30.2	6	14	270	0.00	29.669 
19:15	39.5	34.5	39.5	69	30.2	7	14	270	0.00	29.663 
19:20	39.5	35.2	39.5	69	30.2	6	14	270	0.00	29.663 
19:25	39.5	35.2	39.5	69	30.2	6	13	270	0.00	29.663 
19:30	39.5	35.2	39.5	69	30.2	6	14	248	0.01	29.669 
19:35	39.6	35.3	39.6	69	30.3	6	13	248	0.00	29.669 
19:40	39.8	35.5	39.8	68	30.1	6	13	270	0.00	29.669 
19:45	39.9	35.0	39.9	68	30.2	7	21	270	0.00	29.658 
19:50	40.1	35.9	40.1	68	30.4	6	14	248	0.00	29.658 
19:55	40.2	35.4	40.2	68	30.5	7	19	248	0.00	29.658 
20:00	40.3	35.0	40.3	67	30.2	8	16	270	0.00	29.653 
20:05	40.5	35.2	40.5	67	30.4	8	17	248	0.00	29.653 
20:10	40.5	35.2	40.5	67	30.4	8	17	270	0.00	29.653 
20:15	40.5	35.7	40.5	67	30.4	7	14	248	0.00	29.652 
20:20	40.6	34.8	40.6	67	30.5	9	17	248	0.00	29.652 
20:25	40.6	35.9	40.6	67	30.5	7	18	270	0.00	29.652 
20:30	40.6	35.3	40.6	67	30.5	8	19	270	0.00	29.652 
20:35	40.3	37.7	40.3	68	30.6	4	14	270	0.00	29.652 
20:40	40.3	35.5	40.3	67	30.2	7	16	248	0.00	29.652 
20:45	40.3	36.1	40.3	67	30.2	6	14	270	0.00	29.638 
20:50	40.3	36.1	40.3	67	30.2	6	15	270	0.00	29.638 
20:55	40.3	35.5	40.3	67	30.2	7	16	270	0.00	29.638 
21:00	40.3	36.1	40.3	67	30.2	6	13	270	0.00	29.634 
21:05	40.3	36.1	40.3	67	30.2	6	19	248	0.00	29.634 
21:10	40.3	36.1	40.3	67	30.2	6	14	270	0.00	29.634 
21:15	40.5	35.7	40.5	67	30.4	7	18	248	0.00	29.635 
21:20	40.5	35.2	40.5	66	30.0	8	21	248	0.00	29.635 
21:25	40.5	35.7	40.5	67	30.4	7	13	270	0.00	29.635 
21:30	40.5	35.7	40.5	66	30.0	7	13	270	0.00	29.631 
21:35	40.5	36.4	40.5	67	30.4	6	13	270	0.00	29.631 
21:40	40.5	36.4	40.5	67	30.4	6	17	270	0.00	29.631 
21:45	40.6	36.5	40.6	66	30.1	6	20	248	0.01	29.628 
21:50	40.6	36.5	40.6	66	30.1	6	15	248	0.00	29.628 
21:55	40.6	36.5	40.6	66	30.1	6	15	248	0.00	29.628 
22:00	40.8	36.7	40.8	66	30.3	6	14	248	0.00	29.619 
22:05	40.8	36.7	40.8	66	30.3	6	14	248	0.00	29.619 
22:10	40.8	36.7	40.8	66	30.3	6	11	270	0.00	29.619 
22:15	40.8	36.7	40.8	66	30.3	6	15	270	0.00	29.616 
22:20	40.9	36.2	40.9	66	30.4	7	20	270	0.00	29.616 
22:25	41.1	37.1	41.1	65	30.2	6	13	270	0.00	29.616 
22:30	41.1	37.1	41.1	66	30.6	6	12	248	0.00	29.612 
22:35	41.1	37.1	41.1	65	30.2	6	14	270	0.00	29.612 
22:40	41.1	37.1	41.1	65	30.2	6	11	270	0.00	29.612 
22:45	41.3	36.7	41.3	65	30.4	7	13	270	0.00	29.605 
22:50	41.3	36.7	41.3	65	30.4	7	16	248	0.00	29.605 
22:55	41.2	37.2	41.2	65	30.3	6	13	248	0.00	29.605 
23:00	41.3	36.7	41.3	65	30.4	7	16	248	0.00	29.603 
23:05	41.2	37.9	41.2	65	30.3	5	11	270	0.00	29.603 
23:10	41.2	37.9	41.2	66	30.7	5	10	270	0.00	29.603 
23:15	41.2	36.6	41.2	66	30.7	7	17	270	0.00	29.601 
23:20	41.5	36.4	41.5	65	30.6	8	19	248	0.00	29.601 
23:25	41.5	37.5	41.5	65	30.6	6	13	270	0.00	29.601 
23:30	41.5	36.9	41.5	65	30.6	7	18	248	0.00	29.603 
23:35	41.2	37.9	41.2	66	30.7	5	11	270	0.00	29.603 
23:40	41.1	37.8	41.1	66	30.6	5	11	270	0.00	29.603 
23:45	41.2	36.6	41.2	66	30.7	7	19	270	0.00	29.602 
23:50	41.2	36.6	41.2	66	30.7	7	17	270	0.00	29.602 
23:55	41.2	36.6	41.2	67	31.1	7	21	270	0.00	29.602 

CoCoRaHS
IN-AL-39
A2 Web Hosting
Creative Commons License
GoDaddy
Look for:

loaded 2017-12-12 01:43:40 • last modified 2010-11-18 10:43:29
Privacy PolicyDisclaimer
• wx.awcolley.com is powered by PmWiki v.2002016 •
• all content (unless otherwise noted) © 2017 A W Colley